createdAt,value
2017-07-31T00:01:43.961Z,69.30
2017-07-31T00:04:10.178Z,69.20
2017-07-31T00:06:36.448Z,69.10
2017-07-31T00:09:02.661Z,70.10
2017-07-31T00:11:28.861Z,69.40
2017-07-31T00:13:55.069Z,69.00
2017-07-31T00:16:22.081Z,70.50
2017-07-31T00:18:48.264Z,69.60
2017-07-31T00:21:14.472Z,70.10
2017-07-31T00:23:40.687Z,70.50
2017-07-31T00:26:06.926Z,71.10
2017-07-31T00:28:34.325Z,70.30
2017-07-31T00:31:00.705Z,70.70
2017-07-31T00:33:27.276Z,71.00
2017-07-31T00:35:53.474Z,70.40
2017-07-31T00:38:20.022Z,70.80
2017-07-31T00:40:46.645Z,70.40
2017-07-31T00:43:12.815Z,70.80
2017-07-31T00:45:39.196Z,70.70
2017-07-31T00:48:05.790Z,70.70
2017-07-31T00:50:32.038Z,70.80
2017-07-31T00:52:58.241Z,70.80
2017-07-31T00:55:24.421Z,71.20
2017-07-31T00:57:51.329Z,71.40
2017-07-31T01:00:17.599Z,71.50
2017-07-31T01:02:44.533Z,71.50
2017-07-31T01:05:10.706Z,70.90
2017-07-31T01:07:36.933Z,71.00
2017-07-31T01:10:05.655Z,71.00
2017-07-31T01:12:32.120Z,71.00
2017-07-31T01:14:58.337Z,70.70
2017-07-31T01:17:25.282Z,70.60
2017-07-31T01:19:51.643Z,70.70
2017-07-31T01:22:33.260Z,70.70
2017-07-31T01:24:59.703Z,70.90
2017-07-31T01:27:25.883Z,71.40
2017-07-31T01:29:52.213Z,71.30
2017-07-31T01:32:19.334Z,71.50
2017-07-31T01:34:45.563Z,71.50
2017-07-31T01:37:11.972Z,70.80
2017-07-31T01:39:38.595Z,71.10
2017-07-31T01:42:05.933Z,71.30
2017-07-31T01:44:32.132Z,71.10
2017-07-31T01:46:59.659Z,71.70
2017-07-31T01:49:26.082Z,71.40
2017-07-31T01:51:53.943Z,71.50
2017-07-31T01:54:20.458Z,71.60
2017-07-31T01:56:47.472Z,72.40
2017-07-31T01:59:13.734Z,71.80
2017-07-31T02:01:40.844Z,73.10
2017-07-31T02:04:07.402Z,71.50
2017-07-31T02:06:34.505Z,72.30
2017-07-31T02:09:02.365Z,71.90
2017-07-31T02:11:28.558Z,73.00
2017-07-31T02:13:54.899Z,71.80
2017-07-31T02:16:22.118Z,71.80
2017-07-31T02:18:48.333Z,71.60
2017-07-31T02:21:14.570Z,71.70
2017-07-31T02:23:40.814Z,72.20
2017-07-31T02:26:07.231Z,72.40
2017-07-31T02:28:33.669Z,73.00
2017-07-31T02:30:59.913Z,72.50
2017-07-31T02:33:26.152Z,72.30
2017-07-31T02:35:53.131Z,73.10
2017-07-31T02:38:19.322Z,72.80
2017-07-31T02:40:45.560Z,73.40
2017-07-31T02:43:12.487Z,74.70
2017-07-31T02:45:38.688Z,75.10
2017-07-31T02:48:04.902Z,74.50
2017-07-31T02:50:31.205Z,74.40
2017-07-31T02:52:57.401Z,74.50
2017-07-31T02:55:23.627Z,75.10
2017-07-31T02:57:49.824Z,75.10
2017-07-31T03:00:30.988Z,75.20
2017-07-31T03:02:57.204Z,75.20
2017-07-31T03:05:24.210Z,75.20
2017-07-31T03:07:50.447Z,75.20
2017-07-31T03:10:16.627Z,75.20
2017-07-31T03:12:42.856Z,74.60
2017-07-31T03:15:09.028Z,75.20
2017-07-31T03:17:35.212Z,75.20
2017-07-31T03:20:01.424Z,74.90
2017-07-31T03:22:27.632Z,75.10
2017-07-31T03:24:54.648Z,75.10
2017-07-31T03:27:20.871Z,75.50
2017-07-31T03:29:47.072Z,75.10
2017-07-31T03:32:13.310Z,75.10
2017-07-31T03:34:39.489Z,74.50
2017-07-31T03:37:05.695Z,75.10
2017-07-31T03:39:31.892Z,74.70
2017-07-31T03:41:58.149Z,74.60
2017-07-31T03:44:24.335Z,74.50
2017-07-31T03:46:50.907Z,74.00
2017-07-31T03:49:17.122Z,73.80
2017-07-31T03:51:44.092Z,73.70
2017-07-31T03:54:10.302Z,74.30
2017-07-31T03:56:36.487Z,73.60
2017-07-31T03:59:03.457Z,75.00
2017-07-31T04:01:29.617Z,74.30
2017-07-31T04:03:56.530Z,73.60
2017-07-31T04:06:22.705Z,74.80
2017-07-31T04:08:48.905Z,74.20
2017-07-31T04:11:15.150Z,73.70
2017-07-31T04:13:42.305Z,73.80
2017-07-31T04:16:08.488Z,73.30
2017-07-31T04:18:34.688Z,73.50
2017-07-31T04:21:01.629Z,72.80
2017-07-31T04:23:27.802Z,72.70
2017-07-31T04:25:54.049Z,73.00
2017-07-31T04:28:20.235Z,72.60
2017-07-31T04:30:47.166Z,73.90
2017-07-31T04:33:13.363Z,72.70
2017-07-31T04:35:39.574Z,72.30
2017-07-31T04:38:05.786Z,72.30
2017-07-31T04:40:31.966Z,73.20
2017-07-31T04:42:58.155Z,73.50
2017-07-31T04:45:24.377Z,72.80
2017-07-31T04:47:50.538Z,73.70
2017-07-31T04:50:16.733Z,71.50
2017-07-31T04:52:42.907Z,72.00
2017-07-31T04:55:09.088Z,71.70
2017-07-31T04:57:35.240Z,72.10
2017-07-31T05:00:01.464Z,72.60
2017-07-31T05:02:27.690Z,73.50
2017-07-31T05:04:53.903Z,73.50
2017-07-31T05:07:20.123Z,74.20
2017-07-31T05:09:46.354Z,73.10
2017-07-31T05:12:12.585Z,73.10
2017-07-31T05:14:38.825Z,73.30
2017-07-31T05:17:04.977Z,73.50
2017-07-31T05:19:31.156Z,72.50
2017-07-31T05:21:57.337Z,71.70
2017-07-31T05:24:23.526Z,72.00
2017-07-31T05:26:49.715Z,72.50
2017-07-31T05:29:15.883Z,73.20
2017-07-31T05:31:42.097Z,70.90
2017-07-31T05:34:08.497Z,71.00
2017-07-31T05:36:35.466Z,70.50
2017-07-31T05:39:02.412Z,70.00
2017-07-31T05:41:29.411Z,70.30
2017-07-31T05:43:55.591Z,70.10
2017-07-31T05:46:22.497Z,68.40
2017-07-31T05:48:48.658Z,68.40
2017-07-31T05:51:16.414Z,67.60
2017-07-31T05:53:42.584Z,65.80
2017-07-31T05:56:08.773Z,64.50
2017-07-31T05:58:35.708Z,65.50
2017-07-31T06:01:01.938Z,65.50
2017-07-31T06:03:28.886Z,64.30
2017-07-31T06:05:56.330Z,64.30
2017-07-31T06:08:22.514Z,60.80
2017-07-31T06:10:48.698Z,61.60
2017-07-31T06:13:14.871Z,62.20
2017-07-31T06:15:41.054Z,61.20
2017-07-31T06:18:07.241Z,59.10
2017-07-31T06:20:33.423Z,58.70
2017-07-31T06:23:00.380Z,58.70
2017-07-31T06:25:26.559Z,58.70
2017-07-31T06:27:52.746Z,58.10
2017-07-31T06:30:19.028Z,58.60
2017-07-31T06:32:45.266Z,58.40
2017-07-31T06:35:12.428Z,56.40
2017-07-31T06:37:39.346Z,57.50
2017-07-31T06:40:05.606Z,57.30
2017-07-31T06:42:32.580Z,56.80
2017-07-31T06:44:58.802Z,57.00
2017-07-31T06:47:24.969Z,55.60
2017-07-31T06:49:51.542Z,54.80
2017-07-31T06:52:18.257Z,54.20
2017-07-31T06:54:44.474Z,54.40
2017-07-31T06:57:10.637Z,54.00
2017-07-31T06:59:37.271Z,53.80
2017-07-31T07:02:03.480Z,53.90
2017-07-31T07:04:29.699Z,53.20
2017-07-31T07:06:56.004Z,52.70
2017-07-31T07:09:22.233Z,51.50
2017-07-31T07:11:48.437Z,51.80
2017-07-31T07:14:14.630Z,52.80
2017-07-31T07:16:40.807Z,51.70
2017-07-31T07:19:06.992Z,52.20
2017-07-31T07:21:33.272Z,50.70
2017-07-31T07:23:59.549Z,51.90
2017-07-31T07:26:25.778Z,50.90
2017-07-31T07:28:52.002Z,50.90
2017-07-31T07:31:18.202Z,49.80
2017-07-31T07:33:44.354Z,48.50
2017-07-31T07:36:10.636Z,48.50
2017-07-31T07:38:36.952Z,47.30
2017-07-31T07:41:05.232Z,48.10
2017-07-31T07:43:32.133Z,47.40
2017-07-31T07:45:58.467Z,47.30
2017-07-31T07:48:24.694Z,47.20
2017-07-31T07:50:50.966Z,47.50
2017-07-31T07:53:17.945Z,49.00
2017-07-31T07:55:44.518Z,49.10
2017-07-31T07:58:10.698Z,49.70
2017-07-31T08:00:36.901Z,50.70
2017-07-31T08:03:03.828Z,50.50
2017-07-31T08:05:30.161Z,48.90
2017-07-31T08:07:56.430Z,47.30
2017-07-31T08:10:22.727Z,46.20
2017-07-31T08:12:48.923Z,44.70
2017-07-31T08:15:15.553Z,45.70
2017-07-31T08:17:41.856Z,44.80
2017-07-31T08:20:08.038Z,45.30
2017-07-31T08:22:34.535Z,44.80
2017-07-31T08:25:00.870Z,48.40
2017-07-31T08:27:27.506Z,47.90
2017-07-31T08:29:54.509Z,49.60
2017-07-31T08:32:20.714Z,49.60
2017-07-31T08:34:46.897Z,50.50
2017-07-31T08:37:13.212Z,49.00
2017-07-31T08:39:39.461Z,49.60
2017-07-31T08:42:05.688Z,50.90
2017-07-31T08:44:31.901Z,51.50
2017-07-31T08:46:58.094Z,49.70
2017-07-31T08:49:24.410Z,50.30
2017-07-31T08:51:50.609Z,50.60
2017-07-31T08:54:16.790Z,50.50
2017-07-31T08:56:43.023Z,50.50
2017-07-31T08:59:09.234Z,51.40
2017-07-31T09:01:35.414Z,51.10
2017-07-31T09:04:01.627Z,52.60
2017-07-31T09:06:28.565Z,52.80
2017-07-31T09:08:54.798Z,52.80
2017-07-31T09:11:21.659Z,49.50
2017-07-31T09:13:47.881Z,50.30
2017-07-31T09:16:14.057Z,50.60
2017-07-31T09:18:40.253Z,50.00
2017-07-31T09:21:06.445Z,48.90
2017-07-31T09:23:33.392Z,48.30
2017-07-31T09:26:00.351Z,47.70
2017-07-31T09:28:27.305Z,47.60
2017-07-31T09:30:53.573Z,47.60
2017-07-31T09:33:19.775Z,47.60
2017-07-31T09:35:46.014Z,47.40
2017-07-31T09:38:12.238Z,46.90
2017-07-31T09:40:38.465Z,47.80
2017-07-31T09:43:04.669Z,47.60
2017-07-31T09:45:30.846Z,48.20
2017-07-31T09:47:57.067Z,49.40
2017-07-31T09:50:23.284Z,50.00
2017-07-31T09:52:50.711Z,50.60
2017-07-31T09:55:17.690Z,51.10
2017-07-31T09:57:43.875Z,48.80
2017-07-31T10:00:10.910Z,50.50
2017-07-31T10:02:37.074Z,50.70
2017-07-31T10:05:03.279Z,51.70
2017-07-31T10:07:30.259Z,51.10
2017-07-31T10:09:56.601Z,50.40
2017-07-31T10:12:22.845Z,50.30
2017-07-31T10:14:49.090Z,49.70
2017-07-31T10:17:15.900Z,47.90
2017-07-31T10:19:42.122Z,49.20
2017-07-31T10:22:08.339Z,50.50
2017-07-31T10:24:35.249Z,49.20
2017-07-31T10:27:02.453Z,48.60
2017-07-31T10:29:29.764Z,47.80
2017-07-31T10:31:56.079Z,46.50
2017-07-31T10:34:23.401Z,46.10
2017-07-31T10:36:49.744Z,46.70
2017-07-31T10:39:16.079Z,46.10
2017-07-31T10:41:42.919Z,46.10
2017-07-31T10:44:09.193Z,46.70
2017-07-31T10:46:35.388Z,46.80
2017-07-31T10:49:01.588Z,46.00
2017-07-31T10:51:27.799Z,45.30
2017-07-31T10:53:54.758Z,44.70
2017-07-31T10:56:21.041Z,44.20
2017-07-31T10:58:47.266Z,45.00
2017-07-31T11:01:14.235Z,45.40
2017-07-31T11:03:41.191Z,46.70
2017-07-31T11:06:22.303Z,44.60
2017-07-31T11:08:48.493Z,44.80
2017-07-31T11:11:14.658Z,45.80
2017-07-31T11:13:40.852Z,46.60
2017-07-31T11:16:06.994Z,46.20
2017-07-31T11:18:33.215Z,46.70
2017-07-31T11:20:59.438Z,46.30
2017-07-31T11:23:25.698Z,45.90
2017-07-31T11:25:54.817Z,44.80
2017-07-31T11:28:21.691Z,46.30
2017-07-31T11:30:47.964Z,46.20
2017-07-31T11:33:14.152Z,46.60
2017-07-31T11:35:41.108Z,48.50
2017-07-31T11:38:07.363Z,48.50
2017-07-31T11:40:33.683Z,49.10
2017-07-31T11:42:59.994Z,48.10
2017-07-31T11:45:26.203Z,47.40
2017-07-31T11:47:52.465Z,47.70
2017-07-31T11:50:18.737Z,48.90
2017-07-31T11:52:45.065Z,47.80
2017-07-31T11:55:11.282Z,48.40
2017-07-31T11:57:38.570Z,48.00
2017-07-31T12:00:05.753Z,50.00
2017-07-31T12:02:32.006Z,48.60
2017-07-31T12:04:58.514Z,49.30
2017-07-31T12:07:25.442Z,50.90
2017-07-31T12:09:52.418Z,49.80
2017-07-31T12:12:18.640Z,50.40
2017-07-31T12:14:44.919Z,49.30
2017-07-31T12:17:11.181Z,49.60
2017-07-31T12:19:38.146Z,48.60
2017-07-31T12:22:04.343Z,48.50
2017-07-31T12:24:30.579Z,48.70
2017-07-31T12:26:56.768Z,47.20
2017-07-31T12:29:22.995Z,48.90
2017-07-31T12:31:49.535Z,46.80
2017-07-31T12:34:15.696Z,47.30
2017-07-31T12:36:41.900Z,47.10
2017-07-31T12:39:08.104Z,46.20
2017-07-31T12:41:34.393Z,46.10
2017-07-31T12:44:01.285Z,46.80
2017-07-31T12:46:27.479Z,46.90
2017-07-31T12:48:54.430Z,48.70
2017-07-31T12:51:20.619Z,48.20
2017-07-31T12:54:01.732Z,46.30
2017-07-31T12:56:27.930Z,46.30
2017-07-31T12:58:54.142Z,46.40
2017-07-31T13:01:20.354Z,47.80
2017-07-31T13:03:46.588Z,47.80
2017-07-31T13:06:12.790Z,48.40
2017-07-31T13:08:39.003Z,49.70
2017-07-31T13:11:05.932Z,50.30
2017-07-31T13:13:32.834Z,49.50
2017-07-31T13:15:59.066Z,48.70
2017-07-31T13:18:25.327Z,49.60
2017-07-31T13:20:51.521Z,48.40
2017-07-31T13:23:17.757Z,48.10
2017-07-31T13:25:43.983Z,46.30
2017-07-31T13:28:10.169Z,45.20
2017-07-31T13:30:36.354Z,43.50
2017-07-31T13:33:02.584Z,43.30
2017-07-31T13:35:28.785Z,41.30
2017-07-31T13:37:55.009Z,41.10
2017-07-31T13:40:21.186Z,42.20
2017-07-31T13:42:47.380Z,43.00
2017-07-31T13:45:13.625Z,44.40
2017-07-31T13:47:39.834Z,44.90
2017-07-31T13:50:06.043Z,44.70
2017-07-31T13:52:32.246Z,45.60
2017-07-31T13:54:59.174Z,46.80
2017-07-31T13:57:26.142Z,49.00
2017-07-31T13:59:53.049Z,48.10
2017-07-31T14:02:19.245Z,48.00
2017-07-31T14:04:45.415Z,48.70
2017-07-31T14:07:11.654Z,47.40
2017-07-31T14:09:37.869Z,47.10
2017-07-31T14:12:04.141Z,45.80
2017-07-31T14:14:31.045Z,46.30
2017-07-31T14:16:57.244Z,46.40
2017-07-31T14:19:23.486Z,47.20
2017-07-31T14:21:49.718Z,47.70
2017-07-31T14:24:15.867Z,47.80
2017-07-31T14:26:42.076Z,48.20
2017-07-31T14:29:08.289Z,47.40
2017-07-31T14:31:34.487Z,48.50
2017-07-31T14:34:00.681Z,48.70
2017-07-31T14:36:26.894Z,48.80
2017-07-31T14:38:53.091Z,49.80
2017-07-31T14:41:19.287Z,50.30
2017-07-31T14:43:46.210Z,51.00
2017-07-31T14:46:12.371Z,51.00
2017-07-31T14:48:38.554Z,51.20
2017-07-31T14:51:04.767Z,51.70
2017-07-31T14:53:30.944Z,52.40
2017-07-31T14:55:57.884Z,52.30
2017-07-31T14:58:24.881Z,52.20
2017-07-31T15:00:51.066Z,52.20
2017-07-31T15:03:17.289Z,52.40
2017-07-31T15:05:44.448Z,52.20
2017-07-31T15:08:10.675Z,51.60
2017-07-31T15:10:36.882Z,52.30
2017-07-31T15:13:03.077Z,53.30
2017-07-31T15:15:29.286Z,53.60
2017-07-31T15:17:55.461Z,56.20
2017-07-31T15:20:21.649Z,56.00
2017-07-31T15:22:47.893Z,56.20
2017-07-31T15:25:14.149Z,57.10
2017-07-31T15:27:40.352Z,57.10
2017-07-31T15:30:06.579Z,57.00
2017-07-31T15:32:32.772Z,57.90
2017-07-31T15:34:59.974Z,56.30
2017-07-31T15:37:26.961Z,57.60
2017-07-31T15:39:53.272Z,57.50
2017-07-31T15:42:21.461Z,58.40
2017-07-31T15:44:48.430Z,58.20
2017-07-31T15:47:14.662Z,58.30
2017-07-31T15:49:43.206Z,57.30
2017-07-31T15:52:10.204Z,58.20
2017-07-31T15:54:36.398Z,58.10
2017-07-31T15:57:03.318Z,58.60
2017-07-31T15:59:29.526Z,58.60
2017-07-31T16:01:56.025Z,58.80
2017-07-31T16:04:23.004Z,58.90
2017-07-31T16:06:49.969Z,58.90
2017-07-31T16:09:16.182Z,60.30
2017-07-31T16:11:42.373Z,60.00
2017-07-31T16:14:08.555Z,60.30
2017-07-31T16:16:34.761Z,60.10
2017-07-31T16:19:00.988Z,60.80
2017-07-31T16:21:27.282Z,61.10
2017-07-31T16:23:53.512Z,61.60
2017-07-31T16:26:19.698Z,61.60
2017-07-31T16:28:45.874Z,62.30
2017-07-31T16:31:12.413Z,61.80
2017-07-31T16:33:38.649Z,61.10
2017-07-31T16:36:04.873Z,61.10
2017-07-31T16:38:36.957Z,61.80
2017-07-31T16:41:03.194Z,60.90
2017-07-31T16:43:41.642Z,61.60
2017-07-31T16:46:20.128Z,62.20
2017-07-31T16:48:48.160Z,62.20
2017-07-31T16:51:14.681Z,62.70
2017-07-31T16:53:41.760Z,63.30
2017-07-31T16:56:08.082Z,63.10
2017-07-31T16:58:34.416Z,63.70
2017-07-31T17:01:00.670Z,63.70
2017-07-31T17:03:26.919Z,63.90
2017-07-31T17:05:53.143Z,64.30
2017-07-31T17:08:19.324Z,63.10
2017-07-31T17:10:45.862Z,63.50
2017-07-31T17:13:12.054Z,63.30
2017-07-31T17:15:38.238Z,64.50
2017-07-31T17:18:04.454Z,64.20
2017-07-31T17:20:30.784Z,62.90
2017-07-31T17:22:57.116Z,63.30
2017-07-31T17:25:23.367Z,64.00
2017-07-31T17:27:49.623Z,64.40
2017-07-31T17:30:16.642Z,64.10
2017-07-31T17:32:42.858Z,64.00
2017-07-31T17:35:09.226Z,63.00
2017-07-31T17:37:35.440Z,63.80
2017-07-31T17:40:01.734Z,64.10
2017-07-31T17:42:27.937Z,63.80
2017-07-31T17:44:54.965Z,64.90
2017-07-31T17:47:21.285Z,63.70
2017-07-31T17:49:47.890Z,64.10
2017-07-31T17:52:14.117Z,64.40
2017-07-31T17:54:40.423Z,64.60
2017-07-31T17:57:07.399Z,65.50
2017-07-31T17:59:33.642Z,64.70
2017-07-31T18:01:59.967Z,65.70
2017-07-31T18:04:26.156Z,65.50
2017-07-31T18:06:53.105Z,66.10
2017-07-31T18:09:19.330Z,66.10
2017-07-31T18:11:46.309Z,66.30
2017-07-31T18:14:12.547Z,66.30
2017-07-31T18:16:38.731Z,66.50
2017-07-31T18:19:05.673Z,66.80
2017-07-31T18:21:32.617Z,66.60
2017-07-31T18:23:59.640Z,67.30
2017-07-31T18:26:25.938Z,66.30
2017-07-31T18:28:52.191Z,67.30
2017-07-31T18:31:18.395Z,65.80
2017-07-31T18:33:44.633Z,66.10
2017-07-31T18:36:10.924Z,66.70
2017-07-31T18:38:37.892Z,67.30
2017-07-31T18:41:04.127Z,67.30
2017-07-31T18:43:32.553Z,67.30
2017-07-31T18:45:58.842Z,67.30
2017-07-31T18:48:25.744Z,67.30
2017-07-31T18:50:52.933Z,67.30
2017-07-31T18:53:19.275Z,67.30
2017-07-31T18:55:45.584Z,68.00
2017-07-31T18:58:13.927Z,67.10
2017-07-31T19:00:40.193Z,67.70
2017-07-31T19:06:00.200Z,68.50
2017-07-31T19:08:28.949Z,69.30
2017-07-31T19:10:55.812Z,69.10
2017-07-31T19:13:24.188Z,68.90
2017-07-31T19:15:53.003Z,69.90
2017-07-31T19:18:20.297Z,70.60
2017-07-31T19:20:47.464Z,70.60
2017-07-31T19:23:13.993Z,71.10
2017-07-31T19:25:40.345Z,71.60
2017-07-31T19:28:06.687Z,71.40
2017-07-31T19:30:33.815Z,72.40
2017-07-31T19:33:00.626Z,71.40
2017-07-31T19:35:27.916Z,71.50
2017-07-31T19:37:55.284Z,72.60
2017-07-31T19:40:22.062Z,72.80
2017-07-31T19:42:48.696Z,73.50
2017-07-31T19:45:15.128Z,73.80
2017-07-31T19:47:41.362Z,73.60
2017-07-31T19:50:08.111Z,74.00
2017-07-31T19:52:34.324Z,74.60
2017-07-31T19:55:00.524Z,73.60
2017-07-31T19:57:27.197Z,73.00
2017-07-31T20:00:30.920Z,74.00
2017-07-31T20:02:57.086Z,74.80
2017-07-31T20:05:26.196Z,74.80
2017-07-31T20:07:53.701Z,74.80
2017-07-31T20:10:23.249Z,75.40
2017-07-31T20:12:52.324Z,74.90
2017-07-31T20:15:20.378Z,74.50
2017-07-31T20:17:47.391Z,75.80
2017-07-31T20:20:14.348Z,75.10
2017-07-31T20:22:41.378Z,75.10
2017-07-31T20:25:07.673Z,74.50
2017-07-31T20:27:34.141Z,74.70
2017-07-31T20:30:01.820Z,75.50
2017-07-31T20:32:28.074Z,75.40
2017-07-31T20:34:54.276Z,75.50
2017-07-31T20:37:21.234Z,76.10
2017-07-31T20:39:47.438Z,76.10
2017-07-31T20:42:13.751Z,75.70
2017-07-31T20:44:40.364Z,75.40
2017-07-31T20:47:06.577Z,76.10
2017-07-31T20:49:39.761Z,76.10
2017-07-31T20:52:06.091Z,76.80
2017-07-31T20:54:32.427Z,76.50
2017-07-31T20:56:58.660Z,76.00
2017-07-31T20:59:25.235Z,76.20
2017-07-31T21:01:51.467Z,76.50
2017-07-31T21:04:17.726Z,76.10
2017-07-31T21:06:44.788Z,77.10
2017-07-31T21:09:15.279Z,75.30
2017-07-31T21:11:41.885Z,74.80
2017-07-31T21:14:15.127Z,75.80
2017-07-31T21:16:42.070Z,75.60
2017-07-31T21:19:08.259Z,76.10
2017-07-31T21:21:35.233Z,76.30
2017-07-31T21:24:01.442Z,76.20
2017-07-31T21:26:27.747Z,76.70
2017-07-31T21:28:53.988Z,76.30
2017-07-31T21:31:25.361Z,75.90
2017-07-31T21:33:57.635Z,75.80
2017-07-31T21:36:25.884Z,75.10
2017-07-31T21:38:52.294Z,75.40
2017-07-31T21:41:18.469Z,75.00
2017-07-31T21:43:45.463Z,75.00
2017-07-31T21:46:13.311Z,75.40
2017-07-31T21:48:40.506Z,75.80
2017-07-31T21:51:08.636Z,75.00
2017-07-31T21:53:35.591Z,75.20
2017-07-31T21:56:02.547Z,75.60
2017-07-31T21:58:28.767Z,75.50
2017-07-31T22:00:55.755Z,76.10
2017-07-31T22:03:22.059Z,76.00
2017-07-31T22:05:48.254Z,75.80
2017-07-31T22:08:14.469Z,76.30
2017-07-31T22:10:41.749Z,76.10
2017-07-31T22:13:08.443Z,75.50
2017-07-31T22:15:34.707Z,75.40
2017-07-31T22:18:06.986Z,74.60
2017-07-31T22:20:40.086Z,75.80
2017-07-31T22:23:11.616Z,76.20
2017-07-31T22:25:39.026Z,75.30
2017-07-31T22:28:05.304Z,75.20
2017-07-31T22:30:31.554Z,75.70
2017-07-31T22:32:58.525Z,75.00
2017-07-31T22:35:25.013Z,75.00
2017-07-31T22:37:51.248Z,74.60
2017-07-31T22:40:17.837Z,73.30
2017-07-31T22:42:44.092Z,74.20
2017-07-31T22:45:10.288Z,74.00
2017-07-31T22:47:36.684Z,74.70
2017-07-31T22:50:03.664Z,74.60
2017-07-31T22:52:29.908Z,74.70
2017-07-31T22:54:56.273Z,74.60
2017-07-31T22:57:22.497Z,74.70
2017-07-31T22:59:48.724Z,74.60
2017-07-31T23:02:15.492Z,74.70
2017-07-31T23:04:42.784Z,74.90
2017-07-31T23:07:08.995Z,74.40
2017-07-31T23:09:36.093Z,74.30
2017-07-31T23:12:02.514Z,74.60
2017-07-31T23:14:44.425Z,74.40
2017-07-31T23:17:10.665Z,74.50
2017-07-31T23:19:38.457Z,75.60
2017-07-31T23:22:04.892Z,74.30
2017-07-31T23:24:31.837Z,75.00
2017-07-31T23:26:59.334Z,74.40
2017-07-31T23:29:28.123Z,73.80
2017-07-31T23:31:54.407Z,73.80
2017-07-31T23:34:21.159Z,74.00
2017-07-31T23:36:48.134Z,74.10
2017-07-31T23:39:14.633Z,73.70
2017-07-31T23:41:41.918Z,74.00
2017-07-31T23:44:08.092Z,73.40
2017-07-31T23:46:34.259Z,73.90
2017-07-31T23:49:00.435Z,73.00
2017-07-31T23:51:26.614Z,73.30
2017-07-31T23:53:53.275Z,73.40
2017-07-31T23:56:19.468Z,72.80
2017-07-31T23:58:46.439Z,73.60
